createdAt,value
2024-02-02T00:00:10.661Z,9.91
2024-02-02T00:02:37.468Z,8.93
2024-02-02T00:05:08.249Z,9.25
2024-02-02T00:07:35.543Z,9.47
2024-02-02T00:10:07.703Z,9.34
2024-02-02T00:12:54.455Z,9.47
2024-02-02T00:15:31.120Z,9.68
2024-02-02T00:18:18.035Z,9.42
2024-02-02T00:21:04.972Z,9.10
2024-02-02T00:23:31.777Z,8.62
2024-02-02T00:25:58.671Z,9.20
2024-02-02T00:28:25.444Z,9.55
2024-02-02T00:30:52.193Z,9.44
2024-02-02T00:33:19.005Z,9.26
2024-02-02T00:35:45.742Z,9.21
2024-02-02T00:38:12.410Z,9.56
2024-02-02T00:40:39.072Z,9.19
2024-02-02T00:43:05.776Z,9.14
2024-02-02T00:45:32.463Z,8.43
2024-02-02T00:47:59.164Z,8.29
2024-02-02T00:50:25.882Z,8.48
2024-02-02T00:52:52.567Z,8.40
2024-02-02T00:55:19.214Z,8.40
2024-02-02T00:57:45.884Z,8.33
2024-02-02T01:00:12.886Z,8.87
2024-02-02T01:02:39.648Z,9.10
2024-02-02T01:05:06.640Z,9.09
2024-02-02T01:07:33.394Z,9.01
2024-02-02T01:10:00.208Z,8.56
2024-02-02T01:12:27.147Z,8.78
2024-02-02T01:14:54.098Z,8.56
2024-02-02T01:17:20.825Z,8.75
2024-02-02T01:19:48.452Z,8.88
2024-02-02T01:22:15.218Z,7.95
2024-02-02T01:24:43.066Z,7.95
2024-02-02T01:27:09.951Z,8.36
2024-02-02T01:29:36.977Z,8.70
2024-02-02T01:32:04.067Z,8.84
2024-02-02T01:34:31.036Z,9.08
2024-02-02T01:36:57.917Z,9.07
2024-02-02T01:39:24.664Z,9.00
2024-02-02T01:41:51.474Z,8.98
2024-02-02T01:44:18.448Z,8.99
2024-02-02T01:46:48.991Z,9.07
2024-02-02T01:49:16.056Z,8.41
2024-02-02T01:51:43.117Z,8.31
2024-02-02T01:54:10.447Z,8.32
2024-02-02T01:56:37.658Z,8.20
2024-02-02T01:59:05.851Z,7.87
2024-02-02T02:01:33.592Z,7.79
2024-02-02T02:04:01.306Z,8.08
2024-02-02T02:06:28.572Z,8.28
2024-02-02T02:08:55.733Z,8.10
2024-02-02T02:11:22.522Z,8.07
2024-02-02T02:13:49.635Z,8.27
2024-02-02T02:16:16.415Z,8.37
2024-02-02T02:18:52.353Z,8.14
2024-02-02T02:21:29.693Z,8.12
2024-02-02T02:23:56.775Z,7.95
2024-02-02T02:26:23.973Z,7.66
2024-02-02T02:28:50.924Z,7.85
2024-02-02T02:31:18.424Z,7.96
2024-02-02T02:33:45.580Z,7.94
2024-02-02T02:36:15.572Z,7.81
2024-02-02T02:38:45.019Z,7.93
2024-02-02T02:41:12.103Z,7.64
2024-02-02T02:43:38.811Z,7.65
2024-02-02T02:46:05.956Z,7.55
2024-02-02T02:48:32.894Z,7.22
2024-02-02T02:50:59.727Z,7.22
2024-02-02T02:53:26.683Z,6.68
2024-02-02T02:55:53.380Z,6.77
2024-02-02T02:58:20.052Z,6.91
2024-02-02T03:00:46.898Z,7.54
2024-02-02T03:03:13.659Z,7.50
2024-02-02T03:05:40.449Z,7.70
2024-02-02T03:08:08.413Z,7.34
2024-02-02T03:10:35.624Z,7.48
2024-02-02T03:13:02.460Z,7.23
2024-02-02T03:15:29.230Z,7.68
2024-02-02T03:17:56.115Z,7.38
2024-02-02T03:20:22.879Z,7.42
2024-02-02T03:22:49.593Z,7.61
2024-02-02T03:25:16.302Z,7.55
2024-02-02T03:27:42.946Z,7.50
2024-02-02T03:30:10.026Z,7.42
2024-02-02T03:32:36.810Z,7.53
2024-02-02T03:35:03.623Z,7.90
2024-02-02T03:37:30.310Z,7.86
2024-02-02T03:39:57.021Z,7.46
2024-02-02T03:42:23.737Z,7.07
2024-02-02T03:44:50.608Z,7.40
2024-02-02T03:47:17.408Z,7.47
2024-02-02T03:49:44.392Z,7.56
2024-02-02T03:52:11.294Z,7.43
2024-02-02T03:54:38.048Z,7.62
2024-02-02T03:57:04.988Z,7.68
2024-02-02T03:59:31.879Z,7.44
2024-02-02T04:01:59.309Z,7.39
2024-02-02T04:04:26.252Z,7.02
2024-02-02T04:06:53.066Z,6.85
2024-02-02T04:09:19.959Z,6.60
2024-02-02T04:11:46.740Z,6.35
2024-02-02T04:14:13.580Z,6.57
2024-02-02T04:16:59.171Z,6.56
2024-02-02T04:19:35.117Z,6.65
2024-02-02T04:22:02.378Z,6.80
2024-02-02T04:24:29.757Z,6.46
2024-02-02T04:26:56.479Z,6.08
2024-02-02T04:29:23.522Z,6.16
2024-02-02T04:31:50.251Z,6.26
2024-02-02T04:34:17.162Z,6.80
2024-02-02T04:36:43.939Z,7.15
2024-02-02T04:39:10.669Z,6.81
2024-02-02T04:41:37.549Z,6.76
2024-02-02T04:44:04.536Z,7.17
2024-02-02T04:46:31.205Z,7.44
2024-02-02T04:48:57.982Z,7.60
2024-02-02T04:51:24.949Z,7.08
2024-02-02T04:53:51.684Z,7.26
2024-02-02T04:56:18.352Z,7.35
2024-02-02T04:58:45.249Z,7.28
2024-02-02T05:01:11.990Z,7.15
2024-02-02T05:03:38.879Z,6.58
2024-02-02T05:06:05.738Z,6.79
2024-02-02T05:08:32.485Z,6.80
2024-02-02T05:10:59.262Z,7.31
2024-02-02T05:13:26.033Z,7.78
2024-02-02T05:15:53.048Z,8.13
2024-02-02T05:18:20.085Z,7.97
2024-02-02T05:20:47.313Z,7.95
2024-02-02T05:23:14.079Z,7.82
2024-02-02T05:25:40.938Z,7.47
2024-02-02T05:28:07.728Z,7.71
2024-02-02T05:30:34.657Z,7.90
2024-02-02T05:33:01.622Z,7.64
2024-02-02T05:35:28.397Z,7.06
2024-02-02T05:37:55.152Z,7.12
2024-02-02T05:40:21.968Z,7.02
2024-02-02T05:42:49.436Z,7.03
2024-02-02T05:45:16.227Z,6.82
2024-02-02T05:47:43.011Z,6.63
2024-02-02T05:50:10.258Z,7.10
2024-02-02T05:52:37.110Z,7.19
2024-02-02T05:55:04.118Z,7.02
2024-02-02T05:57:30.955Z,6.86
2024-02-02T05:59:57.748Z,6.91
2024-02-02T06:02:24.530Z,7.11
2024-02-02T06:04:51.570Z,6.87
2024-02-02T06:07:18.530Z,6.94
2024-02-02T06:09:45.353Z,6.62
2024-02-02T06:12:12.189Z,6.71
2024-02-02T06:14:38.898Z,7.07
2024-02-02T06:17:05.711Z,7.28
2024-02-02T06:19:32.500Z,7.45
2024-02-02T06:21:59.353Z,7.48
2024-02-02T06:24:26.358Z,6.86
2024-02-02T06:26:53.433Z,6.52
2024-02-02T06:29:20.203Z,6.64
2024-02-02T06:31:46.910Z,6.70
2024-02-02T06:34:13.744Z,6.94
2024-02-02T06:36:40.693Z,6.99
2024-02-02T06:39:07.558Z,7.14
2024-02-02T06:41:34.418Z,7.21
2024-02-02T06:44:03.546Z,7.49
2024-02-02T06:46:30.357Z,6.75
2024-02-02T06:48:57.180Z,6.68
2024-02-02T06:51:24.059Z,6.76
2024-02-02T06:53:50.809Z,6.99
2024-02-02T06:56:29.688Z,6.72
2024-02-02T06:58:56.626Z,6.97
2024-02-02T07:01:23.934Z,7.24
2024-02-02T07:03:51.671Z,7.67
2024-02-02T07:06:18.587Z,7.48
2024-02-02T07:08:45.936Z,7.35
2024-02-02T07:11:12.737Z,7.79
2024-02-02T07:13:53.107Z,7.73
2024-02-02T07:16:29.746Z,7.97
2024-02-02T07:18:57.704Z,7.94
2024-02-02T07:21:31.774Z,7.88
2024-02-02T07:24:01.245Z,7.57
2024-02-02T07:26:31.232Z,7.17
2024-02-02T07:28:59.590Z,6.53
2024-02-02T07:31:39.132Z,6.53
2024-02-02T07:34:20.902Z,6.13
2024-02-02T07:36:47.840Z,5.43
2024-02-02T07:39:30.309Z,5.49
2024-02-02T07:41:57.396Z,5.65
2024-02-02T07:44:24.116Z,5.30
2024-02-02T07:46:50.819Z,5.70
2024-02-02T07:49:17.626Z,6.51
2024-02-02T07:51:44.445Z,6.95
2024-02-02T07:54:11.801Z,6.42
2024-02-02T07:56:38.619Z,6.26
2024-02-02T07:59:05.325Z,6.48
2024-02-02T08:01:32.110Z,6.54
2024-02-02T08:03:59.022Z,6.84
2024-02-02T08:06:25.986Z,7.39
2024-02-02T08:08:52.877Z,7.19
2024-02-02T08:11:19.660Z,7.17
2024-02-02T08:13:46.396Z,7.76
2024-02-02T08:16:13.219Z,8.45
2024-02-02T08:18:40.323Z,9.02
2024-02-02T08:21:07.286Z,9.25
2024-02-02T08:23:33.979Z,9.45
2024-02-02T08:26:00.744Z,9.40
2024-02-02T08:28:30.028Z,9.02
2024-02-02T08:30:58.517Z,8.37
2024-02-02T08:33:25.397Z,9.16
2024-02-02T08:35:52.430Z,9.32
2024-02-02T08:38:20.339Z,9.35
2024-02-02T08:40:47.330Z,9.66
2024-02-02T08:43:17.932Z,9.72
2024-02-02T08:45:54.073Z,9.73
2024-02-02T08:48:39.192Z,9.26
2024-02-02T08:51:14.921Z,8.36
2024-02-02T08:53:41.976Z,7.56
2024-02-02T08:56:13.387Z,7.22
2024-02-02T08:58:40.109Z,6.92
2024-02-02T09:01:29.522Z,6.71
2024-02-02T09:03:56.511Z,6.99
2024-02-02T09:06:27.139Z,7.17
2024-02-02T09:08:54.033Z,7.60
2024-02-02T09:11:23.176Z,7.90
2024-02-02T09:13:59.256Z,8.39
2024-02-02T09:16:38.864Z,8.32
2024-02-02T09:19:25.278Z,8.34
2024-02-02T09:21:53.229Z,8.76
2024-02-02T09:24:29.178Z,8.45
2024-02-02T09:26:58.586Z,8.29
2024-02-02T09:29:25.419Z,8.37
2024-02-02T09:31:52.245Z,8.68
2024-02-02T09:34:23.899Z,9.05
2024-02-02T09:36:50.907Z,9.75
2024-02-02T09:39:44.847Z,10.21
2024-02-02T09:42:26.644Z,9.90
2024-02-02T09:45:00.680Z,9.85
2024-02-02T09:47:52.834Z,9.96
2024-02-02T09:50:34.953Z,9.76
2024-02-02T09:53:28.754Z,9.78
2024-02-02T09:56:04.657Z,10.10
2024-02-02T09:58:47.274Z,10.47
2024-02-02T10:01:31.499Z,10.56
2024-02-02T10:04:29.450Z,10.55
2024-02-02T10:07:15.481Z,10.57
2024-02-02T10:10:12.543Z,10.64
2024-02-02T10:12:51.378Z,10.33
2024-02-02T10:15:33.218Z,9.85
2024-02-02T10:18:31.093Z,10.59
2024-02-02T10:21:12.089Z,11.19
2024-02-02T10:24:17.935Z,11.52
2024-02-02T10:26:57.866Z,11.77
2024-02-02T10:29:46.653Z,12.08
2024-02-02T10:32:59.115Z,11.57
2024-02-02T10:35:41.937Z,11.39
2024-02-02T10:38:47.662Z,11.59
2024-02-02T10:41:52.368Z,12.03
2024-02-02T10:44:30.962Z,12.22
2024-02-02T10:47:18.179Z,11.51
2024-02-02T10:50:01.168Z,11.11
2024-02-02T10:52:33.960Z,11.48
2024-02-02T10:55:06.792Z,11.75
2024-02-02T10:57:54.728Z,12.11
2024-02-02T11:00:24.124Z,12.14
2024-02-02T11:03:07.092Z,10.63
2024-02-02T11:05:42.904Z,10.38
2024-02-02T11:08:16.843Z,10.95
2024-02-02T11:11:09.734Z,10.96
2024-02-02T11:13:51.594Z,10.87
2024-02-02T11:16:40.151Z,10.07
2024-02-02T11:19:43.182Z,9.23
2024-02-02T11:22:16.639Z,9.41
2024-02-02T11:24:57.618Z,9.92
2024-02-02T11:27:40.227Z,10.56
2024-02-02T11:30:08.203Z,10.87
2024-02-02T11:32:47.167Z,10.56
2024-02-02T11:35:28.886Z,10.54
2024-02-02T11:38:11.688Z,11.14
2024-02-02T11:40:42.105Z,10.26
2024-02-02T11:43:11.449Z,10.83
2024-02-02T11:45:41.184Z,10.50
2024-02-02T11:48:19.061Z,10.72
2024-02-02T11:50:50.196Z,11.50
2024-02-02T11:53:41.385Z,11.88
2024-02-02T11:56:28.202Z,11.39
2024-02-02T11:59:04.634Z,11.64
2024-02-02T12:02:09.013Z,11.88
2024-02-02T12:04:44.773Z,11.84
2024-02-02T12:07:37.361Z,11.16
2024-02-02T12:10:06.544Z,11.48
2024-02-02T12:12:47.156Z,11.19
2024-02-02T12:15:14.017Z,11.23
2024-02-02T12:17:41.055Z,11.68
2024-02-02T12:20:12.067Z,11.98
2024-02-02T12:22:39.149Z,12.45
2024-02-02T12:25:09.656Z,12.37
2024-02-02T12:27:39.585Z,12.69
2024-02-02T12:30:08.147Z,12.67
2024-02-02T12:32:35.821Z,12.63
2024-02-02T12:35:02.799Z,12.68
2024-02-02T12:37:48.315Z,11.65
2024-02-02T12:40:16.756Z,11.09
2024-02-02T12:42:43.812Z,11.35
2024-02-02T12:45:14.228Z,11.21
2024-02-02T12:47:41.180Z,11.95
2024-02-02T12:50:09.580Z,12.39
2024-02-02T12:52:36.487Z,12.29
2024-02-02T12:55:03.392Z,12.35
2024-02-02T12:57:30.191Z,11.88
2024-02-02T12:59:58.346Z,12.22
2024-02-02T13:02:25.071Z,11.92
2024-02-02T13:04:53.678Z,11.73
2024-02-02T13:07:20.683Z,12.07
2024-02-02T13:09:51.349Z,11.70
2024-02-02T13:12:28.756Z,11.70
2024-02-02T13:15:10.862Z,12.27
2024-02-02T13:17:38.368Z,12.33
2024-02-02T13:20:15.081Z,11.72
2024-02-02T13:22:45.831Z,10.99
2024-02-02T13:25:13.595Z,11.68
2024-02-02T13:27:42.509Z,11.66
2024-02-02T13:30:09.599Z,11.88
2024-02-02T13:32:37.731Z,12.12
2024-02-02T13:35:05.451Z,11.80
2024-02-02T13:37:32.927Z,11.81
2024-02-02T13:40:00.680Z,11.57
2024-02-02T13:42:27.596Z,11.94
2024-02-02T13:44:54.363Z,11.61
2024-02-02T13:47:21.717Z,12.23
2024-02-02T13:49:49.297Z,11.94
2024-02-02T13:52:16.668Z,12.33
2024-02-02T13:54:43.549Z,12.10
2024-02-02T13:57:11.716Z,11.69
2024-02-02T13:59:38.915Z,12.15
2024-02-02T14:02:06.380Z,12.17
2024-02-02T14:04:33.230Z,12.20
2024-02-02T14:07:00.915Z,11.89
2024-02-02T14:09:28.655Z,11.85
2024-02-02T14:12:02.243Z,11.68
2024-02-02T14:14:29.637Z,12.11
2024-02-02T14:17:06.263Z,12.27
2024-02-02T14:19:33.883Z,11.43
2024-02-02T14:22:05.825Z,11.44
2024-02-02T14:24:32.988Z,11.51
2024-02-02T14:27:02.645Z,11.44
2024-02-02T14:29:40.356Z,11.32
2024-02-02T14:32:07.743Z,10.91
2024-02-02T14:34:34.590Z,11.69
2024-02-02T14:37:02.162Z,12.30
2024-02-02T14:39:28.917Z,11.83
2024-02-02T14:41:57.158Z,11.50
2024-02-02T14:44:26.071Z,12.05
2024-02-02T14:46:52.855Z,12.62
2024-02-02T14:49:20.305Z,12.53
2024-02-02T14:51:47.089Z,12.60
2024-02-02T14:54:13.809Z,12.97
2024-02-02T14:56:40.681Z,12.97
2024-02-02T14:59:07.708Z,12.46
2024-02-02T15:01:37.885Z,12.91
2024-02-02T15:04:05.531Z,12.79
2024-02-02T15:06:34.781Z,11.88
2024-02-02T15:09:02.597Z,11.73
2024-02-02T15:11:29.286Z,11.90
2024-02-02T15:13:56.043Z,12.63
2024-02-02T15:16:22.824Z,12.43
2024-02-02T15:18:49.566Z,12.32
2024-02-02T15:21:16.486Z,11.97
2024-02-02T15:23:43.274Z,12.48
2024-02-02T15:26:10.315Z,12.84
2024-02-02T15:28:37.064Z,13.02
2024-02-02T15:31:03.922Z,12.89
2024-02-02T15:33:30.751Z,13.31
2024-02-02T15:35:57.712Z,13.44
2024-02-02T15:38:24.447Z,13.39
2024-02-02T15:40:51.172Z,13.07
2024-02-02T15:43:17.894Z,13.36
2024-02-02T15:45:44.600Z,13.44
2024-02-02T15:48:11.548Z,13.58
2024-02-02T15:50:38.283Z,13.11
2024-02-02T15:53:05.146Z,13.22
2024-02-02T15:55:31.803Z,13.33
2024-02-02T15:57:58.582Z,13.56
2024-02-02T16:00:25.343Z,13.58
2024-02-02T16:02:52.205Z,13.67
2024-02-02T16:05:19.678Z,13.63
2024-02-02T16:07:46.621Z,13.08
2024-02-02T16:10:14.881Z,11.64
2024-02-02T16:12:41.752Z,11.45
2024-02-02T16:15:10.234Z,10.21
2024-02-02T16:17:38.049Z,10.74
2024-02-02T16:20:13.268Z,11.05
2024-02-02T16:22:41.497Z,11.09
2024-02-02T16:25:14.857Z,11.65
2024-02-02T16:27:41.894Z,11.27
2024-02-02T16:30:09.446Z,11.59
2024-02-02T16:32:36.222Z,11.75
2024-02-02T16:35:03.142Z,11.83
2024-02-02T16:37:30.052Z,11.85
2024-02-02T16:39:56.739Z,11.92
2024-02-02T16:42:23.609Z,11.96
2024-02-02T16:44:50.366Z,11.59
2024-02-02T16:47:17.118Z,11.39
2024-02-02T16:49:43.929Z,11.44
2024-02-02T16:52:10.761Z,11.27
2024-02-02T16:54:37.589Z,10.89
2024-02-02T16:57:04.582Z,10.83
2024-02-02T16:59:31.367Z,10.50
2024-02-02T17:01:58.378Z,10.43
2024-02-02T17:04:25.306Z,10.25
2024-02-02T17:06:52.244Z,10.61
2024-02-02T17:09:19.081Z,10.79
2024-02-02T17:11:45.865Z,10.49
2024-02-02T17:14:12.886Z,10.37
2024-02-02T17:16:39.698Z,10.52
2024-02-02T17:19:06.632Z,10.56
2024-02-02T17:21:33.612Z,10.29
2024-02-02T17:24:00.456Z,10.25
2024-02-02T17:26:27.408Z,10.34
2024-02-02T17:29:00.189Z,10.25
2024-02-02T17:31:30.646Z,10.29
2024-02-02T17:33:57.537Z,10.03
2024-02-02T17:36:24.476Z,10.03
2024-02-02T17:38:51.227Z,9.07
2024-02-02T17:41:18.276Z,8.81
2024-02-02T17:43:46.423Z,8.69
2024-02-02T17:46:15.092Z,8.58
2024-02-02T17:48:41.948Z,8.31
2024-02-02T17:51:09.806Z,8.44
2024-02-02T17:53:38.164Z,8.53
2024-02-02T17:56:06.372Z,8.06
2024-02-02T17:58:33.565Z,8.12
2024-02-02T18:01:00.345Z,8.49
2024-02-02T18:03:28.913Z,8.62
2024-02-02T18:05:55.887Z,8.55
2024-02-02T18:08:23.157Z,8.29
2024-02-02T18:10:50.287Z,8.53
2024-02-02T18:13:16.948Z,8.37
2024-02-02T18:15:43.855Z,8.04
2024-02-02T18:18:10.689Z,8.09
2024-02-02T18:20:37.480Z,8.25
2024-02-02T18:23:04.371Z,8.80
2024-02-02T18:25:33.956Z,8.99
2024-02-02T18:28:02.688Z,9.25
2024-02-02T18:30:29.440Z,9.57
2024-02-02T18:32:58.562Z,9.31
2024-02-02T18:35:25.324Z,9.57
2024-02-02T18:37:52.085Z,9.56
2024-02-02T18:40:18.881Z,9.36
2024-02-02T18:42:45.652Z,9.37
2024-02-02T18:45:14.437Z,8.52
2024-02-02T18:47:42.129Z,8.04
2024-02-02T18:50:09.193Z,8.43
2024-02-02T18:52:35.998Z,8.73
2024-02-02T18:55:02.717Z,8.89
2024-02-02T18:57:29.760Z,8.94
2024-02-02T18:59:56.534Z,8.90
2024-02-02T19:02:23.237Z,9.09
2024-02-02T19:04:50.211Z,8.89
2024-02-02T19:07:17.176Z,8.98
2024-02-02T19:09:44.124Z,8.31
2024-02-02T19:12:10.997Z,8.06
2024-02-02T19:14:38.180Z,8.44
2024-02-02T19:17:05.194Z,8.46
2024-02-02T19:19:32.220Z,8.37
2024-02-02T19:21:59.127Z,7.99
2024-02-02T19:24:25.935Z,8.49
2024-02-02T19:26:54.686Z,8.51
2024-02-02T19:29:22.849Z,8.76
2024-02-02T19:31:49.577Z,8.48
2024-02-02T19:34:16.604Z,8.83
2024-02-02T19:36:43.503Z,8.76
2024-02-02T19:39:10.567Z,8.61
2024-02-02T19:41:37.494Z,8.82
2024-02-02T19:44:04.529Z,9.10
2024-02-02T19:46:33.471Z,9.56
2024-02-02T19:49:02.893Z,9.24
2024-02-02T19:51:30.916Z,9.04
2024-02-02T19:53:57.956Z,8.92
2024-02-02T19:56:24.755Z,9.37
2024-02-02T19:58:51.722Z,9.54
2024-02-02T20:01:20.881Z,9.68
2024-02-02T20:03:50.981Z,9.63
2024-02-02T20:06:19.823Z,9.42
2024-02-02T20:08:48.606Z,9.70
2024-02-02T20:11:17.893Z,9.25
2024-02-02T20:13:45.221Z,9.42
2024-02-02T20:16:20.327Z,9.02
2024-02-02T20:18:47.713Z,8.55
2024-02-02T20:21:20.347Z,8.42
2024-02-02T20:23:47.282Z,8.81
2024-02-02T20:26:14.696Z,8.91
2024-02-02T20:28:41.552Z,9.13
2024-02-02T20:31:08.312Z,8.74
2024-02-02T20:33:35.081Z,8.49
2024-02-02T20:36:02.015Z,8.54
2024-02-02T20:38:29.130Z,8.80
2024-02-02T20:40:56.143Z,8.75
2024-02-02T20:43:22.949Z,8.62
2024-02-02T20:45:49.787Z,8.79
2024-02-02T20:48:16.679Z,8.92
2024-02-02T20:50:43.540Z,8.79
2024-02-02T20:53:10.280Z,8.82
2024-02-02T20:55:37.052Z,8.75
2024-02-02T20:58:04.759Z,8.59
2024-02-02T21:00:31.638Z,8.21
2024-02-02T21:02:58.789Z,8.12
2024-02-02T21:05:25.927Z,8.20
2024-02-02T21:07:53.636Z,7.88
2024-02-02T21:10:20.814Z,7.83
2024-02-02T21:12:47.733Z,8.07
2024-02-02T21:15:15.097Z,8.02
2024-02-02T21:17:42.262Z,7.91
2024-02-02T21:20:09.447Z,7.93
2024-02-02T21:22:36.132Z,7.72
2024-02-02T21:25:02.875Z,7.85
2024-02-02T21:27:29.775Z,7.87
2024-02-02T21:29:56.439Z,7.74
2024-02-02T21:32:23.149Z,8.28
2024-02-02T21:34:50.020Z,8.22
2024-02-02T21:37:16.752Z,8.16
2024-02-02T21:39:43.472Z,8.34
2024-02-02T21:42:10.222Z,8.20
2024-02-02T21:44:37.218Z,8.48
2024-02-02T21:47:04.476Z,8.73
2024-02-02T21:49:31.319Z,8.47
2024-02-02T21:51:58.088Z,8.53
2024-02-02T21:54:24.827Z,8.45
2024-02-02T21:56:51.633Z,8.73
2024-02-02T21:59:18.290Z,8.75
2024-02-02T22:01:45.019Z,8.33
2024-02-02T22:04:11.845Z,8.55
2024-02-02T22:06:38.628Z,9.07
2024-02-02T22:09:05.384Z,8.75
2024-02-02T22:11:32.125Z,8.83
2024-02-02T22:13:58.806Z,8.69
2024-02-02T22:16:25.512Z,8.63
2024-02-02T22:18:52.355Z,8.68
2024-02-02T22:21:22.970Z,8.32
2024-02-02T22:23:49.627Z,8.61
2024-02-02T22:26:22.875Z,8.88
2024-02-02T22:28:49.650Z,8.83
2024-02-02T22:31:23.110Z,8.94
2024-02-02T22:33:51.007Z,8.99
2024-02-02T22:36:22.562Z,8.76
2024-02-02T22:38:49.236Z,8.83
2024-02-02T22:41:33.660Z,8.52
2024-02-02T22:44:02.386Z,8.46
2024-02-02T22:46:33.138Z,8.79
2024-02-02T22:49:02.122Z,8.92
2024-02-02T22:51:29.335Z,8.79
2024-02-02T22:53:56.067Z,8.81
2024-02-02T22:56:22.870Z,8.24
2024-02-02T22:58:49.632Z,8.04
2024-02-02T23:01:16.620Z,8.02
2024-02-02T23:03:43.626Z,7.52
2024-02-02T23:06:10.458Z,7.23
2024-02-02T23:08:37.188Z,7.05
2024-02-02T23:11:04.120Z,7.28
2024-02-02T23:13:30.791Z,7.09
2024-02-02T23:15:57.551Z,7.09
2024-02-02T23:18:24.429Z,6.91
2024-02-02T23:20:51.243Z,6.91
2024-02-02T23:23:17.929Z,6.91
2024-02-02T23:25:44.573Z,6.83
2024-02-02T23:28:11.280Z,6.71
2024-02-02T23:30:38.034Z,7.07
2024-02-02T23:33:04.880Z,7.01
2024-02-02T23:35:31.597Z,7.32
2024-02-02T23:37:58.387Z,7.37
2024-02-02T23:40:25.050Z,7.22
2024-02-02T23:42:51.850Z,7.40
2024-02-02T23:45:18.617Z,7.73
2024-02-02T23:47:45.426Z,7.85
2024-02-02T23:50:12.552Z,7.78
2024-02-02T23:52:39.338Z,8.04
2024-02-02T23:55:06.477Z,8.12
2024-02-02T23:57:33.797Z,7.42
